Rising Sun, Indiana
Current Conditions -  °F | °C
As of 12:52 AM on Saturday 29 Nov 2014 (Local Time) from KCVG Reporting Station
Overcast Overcast  
Wind Chill: 25°   Ceiling: 18000
Heat Index: 33°   Visibility: 10mi
Dew Point: 18°   Wind: 9mph
Humidity: 54%   Direction: 160°SSE
Pressure: 30.07"   Gusts: NA
Location:  38.95°N, 84.85°W
Report Text: KCVG 290552Z 16008KT 10SM OVC180 01/M08 A3007 RMK AO2 SLP187 T00061078 10006 21006 56011
Loading
Personal Weather Stations






























Interactive Weather Map New forecast layout! Learn more

10-Day Weather Forecast

Advertisements
Track Severe Weather on mobile